sensor_id;sensor_type;location;lat;lon;timestamp;P1;durP1;ratioP1;P2;durP2;ratioP2
55435;SDS011;41307;53.142;6.430;2023-06-22T00:00:49;8.50;;;5.28;;
55435;SDS011;41307;53.142;6.430;2023-06-22T00:03:15;8.68;;;5.93;;
55435;SDS011;41307;53.142;6.430;2023-06-22T00:05:42;9.07;;;5.57;;
55435;SDS011;41307;53.142;6.430;2023-06-22T00:08:10;7.57;;;4.90;;
55435;SDS011;41307;53.142;6.430;2023-06-22T00:10:36;9.90;;;5.57;;
55435;SDS011;41307;53.142;6.430;2023-06-22T00:13:02;11.13;;;5.93;;
55435;SDS011;41307;53.142;6.430;2023-06-22T00:15:28;10.63;;;6.05;;
55435;SDS011;41307;53.142;6.430;2023-06-22T00:17:54;11.57;;;5.88;;
55435;SDS011;41307;53.142;6.430;2023-06-22T00:20:19;11.65;;;6.82;;
55435;SDS011;41307;53.142;6.430;2023-06-22T00:22:45;12.07;;;6.53;;
55435;SDS011;41307;53.142;6.430;2023-06-22T00:25:12;10.95;;;5.70;;
55435;SDS011;41307;53.142;6.430;2023-06-22T00:27:38;9.48;;;5.65;;
55435;SDS011;41307;53.142;6.430;2023-06-22T00:30:04;9.25;;;5.55;;
55435;SDS011;41307;53.142;6.430;2023-06-22T00:32:30;10.13;;;5.90;;
55435;SDS011;41307;53.142;6.430;2023-06-22T00:34:56;11.00;;;6.00;;
55435;SDS011;41307;53.142;6.430;2023-06-22T00:37:21;9.18;;;5.75;;
55435;SDS011;41307;53.142;6.430;2023-06-22T00:39:50;9.88;;;5.75;;
55435;SDS011;41307;53.142;6.430;2023-06-22T00:42:17;10.45;;;6.53;;
55435;SDS011;41307;53.142;6.430;2023-06-22T00:44:43;10.60;;;6.07;;
55435;SDS011;41307;53.142;6.430;2023-06-22T00:47:10;10.88;;;5.88;;
55435;SDS011;41307;53.142;6.430;2023-06-22T00:49:38;10.32;;;6.05;;
55435;SDS011;41307;53.142;6.430;2023-06-22T00:52:04;9.50;;;5.50;;
55435;SDS011;41307;53.142;6.430;2023-06-22T00:54:37;9.40;;;5.75;;
55435;SDS011;41307;53.142;6.430;2023-06-22T00:57:03;10.05;;;6.07;;
55435;SDS011;41307;53.142;6.430;2023-06-22T00:59:29;9.25;;;5.97;;
55435;SDS011;41307;53.142;6.430;2023-06-22T01:01:57;9.85;;;5.22;;
55435;SDS011;41307;53.142;6.430;2023-06-22T01:04:24;9.48;;;5.78;;
55435;SDS011;41307;53.142;6.430;2023-06-22T01:09:49;13.20;;;5.90;;
55435;SDS011;41307;53.142;6.430;2023-06-22T01:12:18;9.07;;;5.82;;
55435;SDS011;41307;53.142;6.430;2023-06-22T01:14:50;9.82;;;5.65;;
55435;SDS011;41307;53.142;6.430;2023-06-22T01:17:32;12.32;;;6.10;;
55435;SDS011;41307;53.142;6.430;2023-06-22T01:19:59;8.73;;;5.45;;
55435;SDS011;41307;53.142;6.430;2023-06-22T01:22:30;11.60;;;5.75;;
55435;SDS011;41307;53.142;6.430;2023-06-22T01:25:20;10.95;;;6.63;;
55435;SDS011;41307;53.142;6.430;2023-06-22T01:27:57;10.48;;;5.22;;
55435;SDS011;41307;53.142;6.430;2023-06-22T01:30:40;11.07;;;6.32;;
55435;SDS011;41307;53.142;6.430;2023-06-22T01:33:07;10.63;;;5.50;;
55435;SDS011;41307;53.142;6.430;2023-06-22T01:35:37;11.75;;;5.82;;
55435;SDS011;41307;53.142;6.430;2023-06-22T01:38:04;9.38;;;5.70;;
55435;SDS011;41307;53.142;6.430;2023-06-22T01:40:30;9.13;;;6.18;;
55435;SDS011;41307;53.142;6.430;2023-06-22T01:42:59;10.40;;;5.55;;
55435;SDS011;41307;53.142;6.430;2023-06-22T01:45:26;10.48;;;5.85;;
55435;SDS011;41307;53.142;6.430;2023-06-22T01:47:52;9.07;;;5.63;;
55435;SDS011;41307;53.142;6.430;2023-06-22T01:50:19;9.40;;;5.75;;
55435;SDS011;41307;53.142;6.430;2023-06-22T01:52:45;6.63;;;4.70;;
55435;SDS011;41307;53.142;6.430;2023-06-22T01:55:11;9.23;;;5.40;;
55435;SDS011;41307;53.142;6.430;2023-06-22T01:57:37;6.60;;;4.80;;
55435;SDS011;41307;53.142;6.430;2023-06-22T02:00:04;7.18;;;4.28;;
55435;SDS011;41307;53.142;6.430;2023-06-22T02:02:36;6.40;;;4.25;;
55435;SDS011;41307;53.142;6.430;2023-06-22T02:05:08;6.97;;;4.55;;
55435;SDS011;41307;53.142;6.430;2023-06-22T02:07:41;9.50;;;5.60;;
55435;SDS011;41307;53.142;6.430;2023-06-22T02:10:14;8.10;;;4.47;;
55435;SDS011;41307;53.142;6.430;2023-06-22T02:12:43;9.13;;;4.97;;
55435;SDS011;41307;53.142;6.430;2023-06-22T02:15:10;7.97;;;4.80;;
55435;SDS011;41307;53.142;6.430;2023-06-22T02:17:38;6.82;;;4.35;;
55435;SDS011;41307;53.142;6.430;2023-06-22T02:20:04;7.43;;;4.68;;
55435;SDS011;41307;53.142;6.430;2023-06-22T02:22:33;7.70;;;4.95;;
55435;SDS011;41307;53.142;6.430;2023-06-22T02:24:58;6.88;;;4.35;;
55435;SDS011;41307;53.142;6.430;2023-06-22T02:27:24;6.55;;;4.75;;
55435;SDS011;41307;53.142;6.430;2023-06-22T02:29:50;7.57;;;4.88;;
55435;SDS011;41307;53.142;6.430;2023-06-22T02:32:16;6.68;;;4.50;;
55435;SDS011;41307;53.142;6.430;2023-06-22T02:34:43;7.10;;;4.50;;
55435;SDS011;41307;53.142;6.430;2023-06-22T02:37:12;6.13;;;4.15;;
55435;SDS011;41307;53.142;6.430;2023-06-22T02:39:41;7.57;;;4.65;;
55435;SDS011;41307;53.142;6.430;2023-06-22T02:42:07;7.65;;;5.25;;
55435;SDS011;41307;53.142;6.430;2023-06-22T02:44:33;7.35;;;4.47;;
55435;SDS011;41307;53.142;6.430;2023-06-22T02:46:58;6.32;;;4.85;;
55435;SDS011;41307;53.142;6.430;2023-06-22T02:49:24;8.80;;;4.82;;
55435;SDS011;41307;53.142;6.430;2023-06-22T02:51:50;7.93;;;4.65;;
55435;SDS011;41307;53.142;6.430;2023-06-22T02:54:16;8.32;;;5.15;;
55435;SDS011;41307;53.142;6.430;2023-06-22T02:56:42;8.50;;;5.78;;
55435;SDS011;41307;53.142;6.430;2023-06-22T02:59:10;9.13;;;4.90;;
55435;SDS011;41307;53.142;6.430;2023-06-22T03:01:36;7.40;;;4.78;;
55435;SDS011;41307;53.142;6.430;2023-06-22T03:04:06;8.35;;;5.45;;
55435;SDS011;41307;53.142;6.430;2023-06-22T03:06:32;8.48;;;5.57;;
55435;SDS011;41307;53.142;6.430;2023-06-22T03:09:02;9.30;;;5.35;;
55435;SDS011;41307;53.142;6.430;2023-06-22T03:11:33;7.70;;;5.25;;
55435;SDS011;41307;53.142;6.430;2023-06-22T03:14:02;10.10;;;5.60;;
55435;SDS011;41307;53.142;6.430;2023-06-22T03:16:28;10.27;;;5.78;;
55435;SDS011;41307;53.142;6.430;2023-06-22T03:18:54;9.77;;;5.82;;
55435;SDS011;41307;53.142;6.430;2023-06-22T03:21:21;7.93;;;5.03;;
55435;SDS011;41307;53.142;6.430;2023-06-22T03:23:48;9.57;;;5.60;;
55435;SDS011;41307;53.142;6.430;2023-06-22T03:26:16;8.95;;;5.40;;
55435;SDS011;41307;53.142;6.430;2023-06-22T03:28:42;9.43;;;6.00;;
55435;SDS011;41307;53.142;6.430;2023-06-22T03:31:08;8.50;;;6.03;;
55435;SDS011;41307;53.142;6.430;2023-06-22T03:33:34;10.35;;;5.68;;
55435;SDS011;41307;53.142;6.430;2023-06-22T03:36:00;9.48;;;5.80;;
55435;SDS011;41307;53.142;6.430;2023-06-22T03:38:26;9.82;;;6.10;;
55435;SDS011;41307;53.142;6.430;2023-06-22T03:40:51;12.00;;;6.35;;
55435;SDS011;41307;53.142;6.430;2023-06-22T03:43:17;10.02;;;5.90;;
55435;SDS011;41307;53.142;6.430;2023-06-22T03:45:43;11.38;;;6.97;;
55435;SDS011;41307;53.142;6.430;2023-06-22T03:48:10;9.55;;;5.68;;
55435;SDS011;41307;53.142;6.430;2023-06-22T03:50:37;9.27;;;5.53;;
55435;SDS011;41307;53.142;6.430;2023-06-22T03:53:02;7.10;;;4.93;;
55435;SDS011;41307;53.142;6.430;2023-06-22T03:55:28;5.35;;;3.90;;
55435;SDS011;41307;53.142;6.430;2023-06-22T03:57:54;6.45;;;3.90;;
55435;SDS011;41307;53.142;6.430;2023-06-22T04:00:22;6.43;;;4.40;;
55435;SDS011;41307;53.142;6.430;2023-06-22T04:02:48;6.47;;;5.00;;
55435;SDS011;41307;53.142;6.430;2023-06-22T04:05:14;8.05;;;4.30;;
55435;SDS011;41307;53.142;6.430;2023-06-22T04:07:42;6.45;;;4.20;;
55435;SDS011;41307;53.142;6.430;2023-06-22T04:10:08;6.82;;;4.43;;
55435;SDS011;41307;53.142;6.430;2023-06-22T04:12:34;6.32;;;5.00;;
55435;SDS011;41307;53.142;6.430;2023-06-22T04:15:00;7.25;;;4.32;;
55435;SDS011;41307;53.142;6.430;2023-06-22T04:17:26;6.70;;;4.90;;
55435;SDS011;41307;53.142;6.430;2023-06-22T04:19:51;8.23;;;4.85;;
55435;SDS011;41307;53.142;6.430;2023-06-22T04:22:17;7.32;;;4.72;;
55435;SDS011;41307;53.142;6.430;2023-06-22T04:24:43;8.20;;;5.28;;
55435;SDS011;41307;53.142;6.430;2023-06-22T04:27:09;7.30;;;4.88;;
55435;SDS011;41307;53.142;6.430;2023-06-22T04:29:35;9.27;;;5.28;;
55435;SDS011;41307;53.142;6.430;2023-06-22T04:32:01;6.93;;;4.85;;
55435;SDS011;41307;53.142;6.430;2023-06-22T04:34:30;7.35;;;5.03;;
55435;SDS011;41307;53.142;6.430;2023-06-22T04:36:56;7.55;;;5.03;;
55435;SDS011;41307;53.142;6.430;2023-06-22T04:39:22;9.20;;;5.97;;
55435;SDS011;41307;53.142;6.430;2023-06-22T04:41:49;8.32;;;5.63;;
55435;SDS011;41307;53.142;6.430;2023-06-22T04:44:16;8.52;;;5.40;;
55435;SDS011;41307;53.142;6.430;2023-06-22T04:46:49;10.27;;;5.32;;
55435;SDS011;41307;53.142;6.430;2023-06-22T04:49:20;8.35;;;5.30;;
55435;SDS011;41307;53.142;6.430;2023-06-22T04:51:47;9.48;;;5.60;;
55435;SDS011;41307;53.142;6.430;2023-06-22T04:54:13;9.40;;;5.88;;
55435;SDS011;41307;53.142;6.430;2023-06-22T04:56:38;8.20;;;5.45;;
55435;SDS011;41307;53.142;6.430;2023-06-22T04:59:06;8.65;;;5.65;;
55435;SDS011;41307;53.142;6.430;2023-06-22T05:01:32;10.35;;;5.80;;
55435;SDS011;41307;53.142;6.430;2023-06-22T05:04:00;8.88;;;5.85;;
55435;SDS011;41307;53.142;6.430;2023-06-22T05:06:26;9.63;;;5.90;;
55435;SDS011;41307;53.142;6.430;2023-06-22T05:08:56;10.50;;;6.15;;
55435;SDS011;41307;53.142;6.430;2023-06-22T05:11:28;10.32;;;6.35;;
55435;SDS011;41307;53.142;6.430;2023-06-22T05:13:54;10.77;;;6.38;;
55435;SDS011;41307;53.142;6.430;2023-06-22T05:16:20;11.55;;;6.22;;
55435;SDS011;41307;53.142;6.430;2023-06-22T05:18:52;11.63;;;6.60;;
55435;SDS011;41307;53.142;6.430;2023-06-22T05:21:23;11.63;;;6.25;;
55435;SDS011;41307;53.142;6.430;2023-06-22T05:23:51;10.27;;;6.13;;
55435;SDS011;41307;53.142;6.430;2023-06-22T05:26:18;9.55;;;5.25;;
55435;SDS011;41307;53.142;6.430;2023-06-22T05:28:47;8.18;;;5.82;;
55435;SDS011;41307;53.142;6.430;2023-06-22T05:31:13;9.90;;;5.82;;
55435;SDS011;41307;53.142;6.430;2023-06-22T05:33:40;8.10;;;5.53;;
55435;SDS011;41307;53.142;6.430;2023-06-22T05:36:09;10.23;;;5.95;;
55435;SDS011;41307;53.142;6.430;2023-06-22T05:38:35;9.95;;;6.15;;
55435;SDS011;41307;53.142;6.430;2023-06-22T05:41:01;11.40;;;6.53;;
55435;SDS011;41307;53.142;6.430;2023-06-22T05:43:27;10.32;;;6.15;;
55435;SDS011;41307;53.142;6.430;2023-06-22T05:45:56;11.20;;;5.68;;
55435;SDS011;41307;53.142;6.430;2023-06-22T05:48:22;10.75;;;5.68;;
55435;SDS011;41307;53.142;6.430;2023-06-22T05:50:48;8.48;;;5.65;;
55435;SDS011;41307;53.142;6.430;2023-06-22T05:53:13;12.05;;;6.28;;
55435;SDS011;41307;53.142;6.430;2023-06-22T05:55:39;10.52;;;6.05;;
55435;SDS011;41307;53.142;6.430;2023-06-22T05:58:06;9.73;;;6.13;;
55435;SDS011;41307;53.142;6.430;2023-06-22T06:00:31;10.50;;;6.18;;
55435;SDS011;41307;53.142;6.430;2023-06-22T06:02:57;10.20;;;5.97;;
55435;SDS011;41307;53.142;6.430;2023-06-22T06:05:32;11.77;;;6.50;;
55435;SDS011;41307;53.142;6.430;2023-06-22T06:07:59;11.60;;;6.00;;
55435;SDS011;41307;53.142;6.430;2023-06-22T06:10:25;8.32;;;5.85;;
55435;SDS011;41307;53.142;6.430;2023-06-22T06:12:51;10.15;;;6.05;;
55435;SDS011;41307;53.142;6.430;2023-06-22T06:15:17;9.55;;;5.70;;
55435;SDS011;41307;53.142;6.430;2023-06-22T06:17:49;8.85;;;5.55;;
55435;SDS011;41307;53.142;6.430;2023-06-22T06:20:17;9.77;;;5.85;;
55435;SDS011;41307;53.142;6.430;2023-06-22T06:22:45;10.05;;;5.47;;
55435;SDS011;41307;53.142;6.430;2023-06-22T06:25:11;8.20;;;5.38;;
55435;SDS011;41307;53.142;6.430;2023-06-22T06:27:47;9.40;;;5.22;;
55435;SDS011;41307;53.142;6.430;2023-06-22T06:30:15;8.52;;;5.45;;
55435;SDS011;41307;53.142;6.430;2023-06-22T06:32:42;7.78;;;4.28;;
55435;SDS011;41307;53.142;6.430;2023-06-22T06:35:10;7.30;;;4.28;;
55435;SDS011;41307;53.142;6.430;2023-06-22T06:37:38;7.32;;;4.43;;
55435;SDS011;41307;53.142;6.430;2023-06-22T06:40:06;6.22;;;4.40;;
55435;SDS011;41307;53.142;6.430;2023-06-22T06:42:35;7.85;;;4.60;;
55435;SDS011;41307;53.142;6.430;2023-06-22T06:45:10;9.10;;;5.13;;
55435;SDS011;41307;53.142;6.430;2023-06-22T06:47:43;6.90;;;4.25;;
55435;SDS011;41307;53.142;6.430;2023-06-22T06:50:09;7.40;;;4.75;;
55435;SDS011;41307;53.142;6.430;2023-06-22T06:52:36;8.02;;;5.20;;
55435;SDS011;41307;53.142;6.430;2023-06-22T06:55:02;6.97;;;3.90;;
55435;SDS011;41307;53.142;6.430;2023-06-22T07:00:03;7.82;;;4.18;;
55435;SDS011;41307;53.142;6.430;2023-06-22T07:02:37;6.43;;;3.58;;
55435;SDS011;41307;53.142;6.430;2023-06-22T07:05:04;6.95;;;4.30;;
55435;SDS011;41307;53.142;6.430;2023-06-22T07:07:30;7.32;;;4.40;;
55435;SDS011;41307;53.142;6.430;2023-06-22T07:09:56;6.70;;;4.00;;
55435;SDS011;41307;53.142;6.430;2023-06-22T07:12:22;5.80;;;3.63;;
55435;SDS011;41307;53.142;6.430;2023-06-22T07:14:48;7.70;;;4.50;;
55435;SDS011;41307;53.142;6.430;2023-06-22T07:17:15;6.65;;;3.83;;
55435;SDS011;41307;53.142;6.430;2023-06-22T07:19:41;4.82;;;3.40;;
55435;SDS011;41307;53.142;6.430;2023-06-22T07:22:07;5.13;;;2.95;;
55435;SDS011;41307;53.142;6.430;2023-06-22T07:24:33;4.28;;;2.75;;
55435;SDS011;41307;53.142;6.430;2023-06-22T07:26:58;5.28;;;2.90;;
55435;SDS011;41307;53.142;6.430;2023-06-22T07:29:24;2.83;;;2.40;;
55435;SDS011;41307;53.142;6.430;2023-06-22T07:31:51;4.13;;;2.47;;
55435;SDS011;41307;53.142;6.430;2023-06-22T07:34:18;3.70;;;2.50;;
55435;SDS011;41307;53.142;6.430;2023-06-22T07:36:44;3.75;;;2.10;;
55435;SDS011;41307;53.142;6.430;2023-06-22T07:39:11;4.20;;;2.55;;
55435;SDS011;41307;53.142;6.430;2023-06-22T07:41:38;4.10;;;2.47;;
55435;SDS011;41307;53.142;6.430;2023-06-22T07:44:05;6.65;;;2.60;;
55435;SDS011;41307;53.142;6.430;2023-06-22T07:46:32;4.43;;;2.13;;
55435;SDS011;41307;53.142;6.430;2023-06-22T07:48:58;3.42;;;1.85;;
55435;SDS011;41307;53.142;6.430;2023-06-22T07:51:25;3.95;;;1.80;;
55435;SDS011;41307;53.142;6.430;2023-06-22T07:53:51;3.50;;;1.80;;
55435;SDS011;41307;53.142;6.430;2023-06-22T07:56:16;2.95;;;2.05;;
55435;SDS011;41307;53.142;6.430;2023-06-22T07:58:46;3.40;;;2.42;;
55435;SDS011;41307;53.142;6.430;2023-06-22T08:01:12;3.42;;;2.05;;
55435;SDS011;41307;53.142;6.430;2023-06-22T08:03:42;4.53;;;2.28;;
55435;SDS011;41307;53.142;6.430;2023-06-22T08:06:08;3.75;;;2.10;;
55435;SDS011;41307;53.142;6.430;2023-06-22T08:08:35;3.65;;;1.90;;
55435;SDS011;41307;53.142;6.430;2023-06-22T08:11:01;3.47;;;1.83;;
55435;SDS011;41307;53.142;6.430;2023-06-22T08:13:27;4.63;;;2.40;;
55435;SDS011;41307;53.142;6.430;2023-06-22T08:15:53;3.55;;;2.28;;
55435;SDS011;41307;53.142;6.430;2023-06-22T08:18:19;5.30;;;2.30;;
55435;SDS011;41307;53.142;6.430;2023-06-22T08:20:45;3.67;;;2.00;;
55435;SDS011;41307;53.142;6.430;2023-06-22T08:23:11;4.22;;;2.15;;
55435;SDS011;41307;53.142;6.430;2023-06-22T08:25:37;3.55;;;2.08;;
55435;SDS011;41307;53.142;6.430;2023-06-22T08:28:03;4.28;;;2.15;;
55435;SDS011;41307;53.142;6.430;2023-06-22T08:30:30;2.72;;;1.75;;
55435;SDS011;41307;53.142;6.430;2023-06-22T08:32:55;3.80;;;2.15;;
55435;SDS011;41307;53.142;6.430;2023-06-22T08:35:24;3.25;;;1.85;;
55435;SDS011;41307;53.142;6.430;2023-06-22T08:37:50;4.38;;;2.50;;
55435;SDS011;41307;53.142;6.430;2023-06-22T08:40:20;3.90;;;2.20;;
55435;SDS011;41307;53.142;6.430;2023-06-22T08:42:46;3.50;;;2.40;;
55435;SDS011;41307;53.142;6.430;2023-06-22T08:45:13;3.50;;;2.08;;
55435;SDS011;41307;53.142;6.430;2023-06-22T08:47:39;3.72;;;2.20;;
55435;SDS011;41307;53.142;6.430;2023-06-22T08:50:09;4.25;;;2.20;;
55435;SDS011;41307;53.142;6.430;2023-06-22T08:52:36;5.07;;;2.75;;
55435;SDS011;41307;53.142;6.430;2023-06-22T08:55:05;3.28;;;2.03;;
55435;SDS011;41307;53.142;6.430;2023-06-22T08:57:32;4.10;;;2.53;;
55435;SDS011;41307;53.142;6.430;2023-06-22T08:59:58;4.13;;;2.13;;
55435;SDS011;41307;53.142;6.430;2023-06-22T09:02:27;3.30;;;2.10;;
55435;SDS011;41307;53.142;6.430;2023-06-22T09:04:56;3.78;;;1.63;;
55435;SDS011;41307;53.142;6.430;2023-06-22T09:07:22;5.15;;;2.30;;
55435;SDS011;41307;53.142;6.430;2023-06-22T09:09:49;4.82;;;2.33;;
55435;SDS011;41307;53.142;6.430;2023-06-22T09:12:16;3.95;;;2.50;;
55435;SDS011;41307;53.142;6.430;2023-06-22T09:14:42;3.45;;;2.03;;
55435;SDS011;41307;53.142;6.430;2023-06-22T09:17:08;4.53;;;2.42;;
55435;SDS011;41307;53.142;6.430;2023-06-22T09:19:33;3.95;;;2.47;;
55435;SDS011;41307;53.142;6.430;2023-06-22T09:21:59;3.67;;;2.28;;
55435;SDS011;41307;53.142;6.430;2023-06-22T09:24:25;4.55;;;2.83;;
55435;SDS011;41307;53.142;6.430;2023-06-22T09:26:51;3.50;;;2.10;;
55435;SDS011;41307;53.142;6.430;2023-06-22T09:29:17;7.55;;;2.22;;
55435;SDS011;41307;53.142;6.430;2023-06-22T09:31:42;3.97;;;2.22;;
55435;SDS011;41307;53.142;6.430;2023-06-22T09:34:09;3.63;;;1.88;;
55435;SDS011;41307;53.142;6.430;2023-06-22T09:36:35;6.45;;;2.22;;
55435;SDS011;41307;53.142;6.430;2023-06-22T09:39:01;2.70;;;1.45;;
55435;SDS011;41307;53.142;6.430;2023-06-22T09:41:31;3.55;;;2.13;;
55435;SDS011;41307;53.142;6.430;2023-06-22T09:43:56;2.78;;;1.67;;
55435;SDS011;41307;53.142;6.430;2023-06-22T09:46:22;3.10;;;2.20;;
55435;SDS011;41307;53.142;6.430;2023-06-22T09:48:50;3.10;;;1.98;;
55435;SDS011;41307;53.142;6.430;2023-06-22T09:51:16;3.72;;;1.92;;
55435;SDS011;41307;53.142;6.430;2023-06-22T09:53:42;4.82;;;2.60;;
55435;SDS011;41307;53.142;6.430;2023-06-22T09:56:09;3.13;;;1.65;;
55435;SDS011;41307;53.142;6.430;2023-06-22T09:58:39;3.58;;;1.90;;
55435;SDS011;41307;53.142;6.430;2023-06-22T10:01:09;3.83;;;2.15;;
55435;SDS011;41307;53.142;6.430;2023-06-22T10:03:35;2.88;;;1.73;;
55435;SDS011;41307;53.142;6.430;2023-06-22T10:06:02;3.28;;;1.90;;
55435;SDS011;41307;53.142;6.430;2023-06-22T10:08:28;3.38;;;1.90;;
55435;SDS011;41307;53.142;6.430;2023-06-22T10:10:54;2.92;;;1.98;;
55435;SDS011;41307;53.142;6.430;2023-06-22T10:13:19;2.75;;;1.63;;
55435;SDS011;41307;53.142;6.430;2023-06-22T10:15:45;3.97;;;1.98;;
55435;SDS011;41307;53.142;6.430;2023-06-22T10:18:17;3.53;;;2.13;;
55435;SDS011;41307;53.142;6.430;2023-06-22T10:20:44;4.07;;;2.05;;
55435;SDS011;41307;53.142;6.430;2023-06-22T10:23:15;2.97;;;1.83;;
55435;SDS011;41307;53.142;6.430;2023-06-22T10:25:41;3.70;;;2.10;;
55435;SDS011;41307;53.142;6.430;2023-06-22T10:28:06;2.50;;;1.60;;
55435;SDS011;41307;53.142;6.430;2023-06-22T10:30:35;2.78;;;1.70;;
55435;SDS011;41307;53.142;6.430;2023-06-22T10:33:01;2.85;;;1.88;;
55435;SDS011;41307;53.142;6.430;2023-06-22T10:35:27;3.53;;;1.98;;
55435;SDS011;41307;53.142;6.430;2023-06-22T10:37:52;2.50;;;1.33;;
55435;SDS011;41307;53.142;6.430;2023-06-22T10:40:19;3.28;;;1.90;;
55435;SDS011;41307;53.142;6.430;2023-06-22T10:42:45;3.38;;;1.85;;
55435;SDS011;41307;53.142;6.430;2023-06-22T10:45:13;3.28;;;1.92;;
55435;SDS011;41307;53.142;6.430;2023-06-22T10:47:39;3.83;;;2.20;;
55435;SDS011;41307;53.142;6.430;2023-06-22T10:50:07;3.58;;;1.80;;
55435;SDS011;41307;53.142;6.430;2023-06-22T10:52:33;2.67;;;1.42;;
55435;SDS011;41307;53.142;6.430;2023-06-22T10:54:59;2.55;;;1.42;;
55435;SDS011;41307;53.142;6.430;2023-06-22T10:57:25;2.72;;;1.67;;
55435;SDS011;41307;53.142;6.430;2023-06-22T10:59:51;2.90;;;1.73;;
55435;SDS011;41307;53.142;6.430;2023-06-22T11:02:16;2.60;;;1.80;;
55435;SDS011;41307;53.142;6.430;2023-06-22T11:04:42;3.95;;;2.05;;
55435;SDS011;41307;53.142;6.430;2023-06-22T11:07:08;3.88;;;2.20;;
55435;SDS011;41307;53.142;6.430;2023-06-22T11:09:37;3.10;;;1.75;;
55435;SDS011;41307;53.142;6.430;2023-06-22T11:12:04;3.08;;;1.77;;
55435;SDS011;41307;53.142;6.430;2023-06-22T11:14:31;2.80;;;1.88;;
55435;SDS011;41307;53.142;6.430;2023-06-22T11:16:58;3.60;;;2.03;;
55435;SDS011;41307;53.142;6.430;2023-06-22T11:19:24;3.53;;;1.98;;
55435;SDS011;41307;53.142;6.430;2023-06-22T11:21:50;3.13;;;1.67;;
55435;SDS011;41307;53.142;6.430;2023-06-22T11:24:16;4.07;;;2.10;;
55435;SDS011;41307;53.142;6.430;2023-06-22T11:26:42;3.85;;;2.22;;
55435;SDS011;41307;53.142;6.430;2023-06-22T11:29:08;3.33;;;1.92;;
55435;SDS011;41307;53.142;6.430;2023-06-22T11:31:34;3.80;;;2.08;;
55435;SDS011;41307;53.142;6.430;2023-06-22T11:34:00;3.33;;;1.98;;
55435;SDS011;41307;53.142;6.430;2023-06-22T11:36:26;3.00;;;1.90;;
55435;SDS011;41307;53.142;6.430;2023-06-22T11:38:54;3.00;;;1.60;;
55435;SDS011;41307;53.142;6.430;2023-06-22T11:41:22;2.63;;;1.52;;
55435;SDS011;41307;53.142;6.430;2023-06-22T11:43:48;5.18;;;2.10;;
55435;SDS011;41307;53.142;6.430;2023-06-22T11:46:14;3.30;;;1.33;;
55435;SDS011;41307;53.142;6.430;2023-06-22T11:48:39;3.20;;;1.70;;
55435;SDS011;41307;53.142;6.430;2023-06-22T11:51:05;2.42;;;1.20;;
55435;SDS011;41307;53.142;6.430;2023-06-22T11:53:33;2.65;;;1.73;;
55435;SDS011;41307;53.142;6.430;2023-06-22T11:55:59;4.80;;;2.10;;
55435;SDS011;41307;53.142;6.430;2023-06-22T11:58:26;2.40;;;1.52;;
55435;SDS011;41307;53.142;6.430;2023-06-22T12:00:53;4.63;;;2.38;;
55435;SDS011;41307;53.142;6.430;2023-06-22T12:03:19;4.28;;;1.92;;
55435;SDS011;41307;53.142;6.430;2023-06-22T12:05:46;4.07;;;2.47;;
55435;SDS011;41307;53.142;6.430;2023-06-22T12:08:12;2.13;;;1.60;;
55435;SDS011;41307;53.142;6.430;2023-06-22T12:10:39;2.63;;;1.70;;
55435;SDS011;41307;53.142;6.430;2023-06-22T12:13:05;3.00;;;1.80;;
55435;SDS011;41307;53.142;6.430;2023-06-22T12:15:30;4.03;;;1.90;;
55435;SDS011;41307;53.142;6.430;2023-06-22T12:17:56;3.47;;;1.92;;
55435;SDS011;41307;53.142;6.430;2023-06-22T12:20:22;3.65;;;1.80;;
55435;SDS011;41307;53.142;6.430;2023-06-22T12:22:48;3.50;;;2.13;;
55435;SDS011;41307;53.142;6.430;2023-06-22T12:25:16;3.75;;;2.13;;
55435;SDS011;41307;53.142;6.430;2023-06-22T12:27:42;4.20;;;2.53;;
55435;SDS011;41307;53.142;6.430;2023-06-22T12:30:08;3.83;;;2.28;;
55435;SDS011;41307;53.142;6.430;2023-06-22T12:32:34;3.28;;;2.13;;
55435;SDS011;41307;53.142;6.430;2023-06-22T12:35:00;4.38;;;2.40;;
55435;SDS011;41307;53.142;6.430;2023-06-22T12:37:25;3.75;;;2.08;;
55435;SDS011;41307;53.142;6.430;2023-06-22T12:39:52;4.03;;;2.28;;
55435;SDS011;41307;53.142;6.430;2023-06-22T12:42:19;3.50;;;1.95;;
55435;SDS011;41307;53.142;6.430;2023-06-22T12:44:46;3.58;;;1.98;;
55435;SDS011;41307;53.142;6.430;2023-06-22T12:47:11;3.15;;;1.88;;
55435;SDS011;41307;53.142;6.430;2023-06-22T12:49:38;4.28;;;2.10;;
55435;SDS011;41307;53.142;6.430;2023-06-22T12:52:08;3.42;;;2.10;;
55435;SDS011;41307;53.142;6.430;2023-06-22T12:54:35;4.63;;;2.60;;
55435;SDS011;41307;53.142;6.430;2023-06-22T12:57:01;5.20;;;2.70;;
55435;SDS011;41307;53.142;6.430;2023-06-22T12:59:27;4.38;;;1.92;;
55435;SDS011;41307;53.142;6.430;2023-06-22T13:01:53;4.35;;;2.10;;
55435;SDS011;41307;53.142;6.430;2023-06-22T13:04:18;4.13;;;2.00;;
55435;SDS011;41307;53.142;6.430;2023-06-22T13:06:46;3.10;;;2.00;;
55435;SDS011;41307;53.142;6.430;2023-06-22T13:09:13;3.53;;;2.00;;
55435;SDS011;41307;53.142;6.430;2023-06-22T13:11:40;3.75;;;1.80;;
55435;SDS011;41307;53.142;6.430;2023-06-22T13:14:06;3.63;;;1.73;;
55435;SDS011;41307;53.142;6.430;2023-06-22T13:16:32;3.42;;;2.08;;
55435;SDS011;41307;53.142;6.430;2023-06-22T13:18:57;2.25;;;1.27;;
55435;SDS011;41307;53.142;6.430;2023-06-22T13:21:23;3.53;;;1.30;;
55435;SDS011;41307;53.142;6.430;2023-06-22T13:23:49;1.92;;;1.20;;
55435;SDS011;41307;53.142;6.430;2023-06-22T13:26:15;1.80;;;1.23;;
55435;SDS011;41307;53.142;6.430;2023-06-22T13:28:40;2.97;;;1.90;;
55435;SDS011;41307;53.142;6.430;2023-06-22T13:31:06;3.67;;;2.13;;
55435;SDS011;41307;53.142;6.430;2023-06-22T13:33:32;3.28;;;1.80;;
55435;SDS011;41307;53.142;6.430;2023-06-22T13:35:57;3.63;;;1.92;;
55435;SDS011;41307;53.142;6.430;2023-06-22T13:38:23;3.45;;;1.88;;
55435;SDS011;41307;53.142;6.430;2023-06-22T13:40:49;3.17;;;1.75;;
55435;SDS011;41307;53.142;6.430;2023-06-22T13:43:15;4.22;;;1.88;;
55435;SDS011;41307;53.142;6.430;2023-06-22T13:45:42;3.63;;;2.05;;
55435;SDS011;41307;53.142;6.430;2023-06-22T13:48:08;3.13;;;1.70;;
55435;SDS011;41307;53.142;6.430;2023-06-22T13:50:34;2.13;;;1.20;;
55435;SDS011;41307;53.142;6.430;2023-06-22T13:53:00;2.33;;;1.00;;
55435;SDS011;41307;53.142;6.430;2023-06-22T13:55:26;1.85;;;0.95;;
55435;SDS011;41307;53.142;6.430;2023-06-22T13:57:52;2.03;;;1.17;;
55435;SDS011;41307;53.142;6.430;2023-06-22T14:00:18;1.98;;;1.30;;
55435;SDS011;41307;53.142;6.430;2023-06-22T14:02:44;3.25;;;1.17;;
55435;SDS011;41307;53.142;6.430;2023-06-22T14:05:10;2.50;;;1.05;;
55435;SDS011;41307;53.142;6.430;2023-06-22T14:07:36;2.13;;;1.10;;
55435;SDS011;41307;53.142;6.430;2023-06-22T14:10:05;2.53;;;1.08;;
55435;SDS011;41307;53.142;6.430;2023-06-22T14:12:31;1.42;;;0.90;;
55435;SDS011;41307;53.142;6.430;2023-06-22T14:14:56;1.92;;;0.95;;
55435;SDS011;41307;53.142;6.430;2023-06-22T14:17:22;1.80;;;0.95;;
55435;SDS011;41307;53.142;6.430;2023-06-22T14:19:50;1.70;;;0.98;;
55435;SDS011;41307;53.142;6.430;2023-06-22T14:22:20;1.38;;;1.00;;
55435;SDS011;41307;53.142;6.430;2023-06-22T14:24:47;2.30;;;0.90;;
55435;SDS011;41307;53.142;6.430;2023-06-22T14:27:13;1.58;;;0.95;;
55435;SDS011;41307;53.142;6.430;2023-06-22T14:29:39;1.77;;;0.98;;
55435;SDS011;41307;53.142;6.430;2023-06-22T14:32:04;2.58;;;0.98;;
55435;SDS011;41307;53.142;6.430;2023-06-22T14:34:31;1.83;;;0.80;;
55435;SDS011;41307;53.142;6.430;2023-06-22T14:37:04;1.50;;;0.55;;
55435;SDS011;41307;53.142;6.430;2023-06-22T14:39:31;1.58;;;0.77;;
55435;SDS011;41307;53.142;6.430;2023-06-22T14:41:57;1.25;;;0.68;;
55435;SDS011;41307;53.142;6.430;2023-06-22T14:44:23;1.75;;;0.70;;
55435;SDS011;41307;53.142;6.430;2023-06-22T14:46:48;1.73;;;0.40;;
55435;SDS011;41307;53.142;6.430;2023-06-22T14:49:14;1.58;;;0.80;;